createdAt,value
2023-10-20T00:01:56.120Z,12.90
2023-10-20T00:04:25.284Z,16.35
2023-10-20T00:06:52.897Z,14.05
2023-10-20T00:09:20.828Z,14.05
2023-10-20T00:11:51.855Z,17.52
2023-10-20T00:14:19.211Z,14.68
2023-10-20T00:16:46.512Z,15.52
2023-10-20T00:19:13.932Z,15.80
2023-10-20T00:21:41.156Z,15.43
2023-10-20T00:24:09.003Z,17.50
2023-10-20T00:26:36.306Z,16.98
2023-10-20T00:29:03.871Z,17.63
2023-10-20T00:31:31.661Z,17.48
2023-10-20T00:34:01.486Z,18.85
2023-10-20T00:36:31.427Z,18.85
2023-10-20T00:38:58.856Z,21.25
2023-10-20T00:41:26.248Z,20.27
2023-10-20T00:43:54.500Z,20.55
2023-10-20T00:46:22.194Z,19.48
2023-10-20T00:48:50.050Z,21.00
2023-10-20T00:51:18.117Z,20.58
2023-10-20T00:53:46.294Z,20.48
2023-10-20T00:56:13.798Z,19.98
2023-10-20T00:58:42.861Z,21.55
2023-10-20T01:01:10.604Z,19.50
2023-10-20T01:03:38.690Z,24.63
2023-10-20T01:06:07.035Z,19.73
2023-10-20T01:08:34.577Z,20.17
2023-10-20T01:11:02.142Z,20.25
2023-10-20T01:13:29.419Z,21.65
2023-10-20T01:15:56.782Z,20.98
2023-10-20T01:18:24.369Z,20.65
2023-10-20T01:20:51.838Z,23.13
2023-10-20T01:23:19.355Z,19.80
2023-10-20T01:25:47.201Z,21.60
2023-10-20T01:28:15.091Z,20.80
2023-10-20T01:30:42.325Z,22.58
2023-10-20T01:33:09.635Z,20.55
2023-10-20T01:35:37.361Z,20.13
2023-10-20T01:38:05.315Z,20.67
2023-10-20T01:40:32.985Z,19.13
2023-10-20T01:43:00.467Z,19.05
2023-10-20T01:45:27.904Z,18.85
2023-10-20T01:47:56.678Z,19.90
2023-10-20T01:50:25.790Z,21.58
2023-10-20T01:52:53.448Z,22.55
2023-10-20T01:55:20.860Z,22.98
2023-10-20T01:57:48.174Z,19.70
2023-10-20T02:00:16.274Z,21.55
2023-10-20T02:02:43.844Z,22.25
2023-10-20T02:05:11.564Z,23.10
2023-10-20T02:07:40.019Z,21.90
2023-10-20T02:10:08.558Z,19.58
2023-10-20T02:12:36.140Z,21.25
2023-10-20T02:15:04.860Z,18.20
2023-10-20T02:17:32.656Z,20.63
2023-10-20T02:20:00.319Z,20.38
2023-10-20T02:22:28.160Z,18.40
2023-10-20T02:24:55.503Z,21.10
2023-10-20T02:27:22.932Z,18.00
2023-10-20T02:29:50.597Z,20.15
2023-10-20T02:32:18.064Z,18.80
2023-10-20T02:34:46.822Z,20.95
2023-10-20T02:37:16.130Z,19.88
2023-10-20T02:39:44.884Z,18.58
2023-10-20T02:42:12.668Z,20.98
2023-10-20T02:44:40.051Z,20.25
2023-10-20T02:47:07.619Z,22.15
2023-10-20T02:49:35.244Z,21.02
2023-10-20T02:52:02.576Z,19.98
2023-10-20T02:54:30.133Z,18.92
2023-10-20T02:56:57.944Z,19.55
2023-10-20T02:59:25.764Z,20.80
2023-10-20T03:01:55.345Z,20.17
2023-10-20T03:04:27.907Z,20.38
2023-10-20T03:06:55.291Z,17.73
2023-10-20T03:09:23.771Z,19.85
2023-10-20T03:11:51.262Z,21.55
2023-10-20T03:14:18.911Z,20.02
2023-10-20T03:16:46.701Z,22.92
2023-10-20T03:19:14.424Z,24.63
2023-10-20T03:21:41.980Z,19.38
2023-10-20T03:24:11.298Z,23.10
2023-10-20T03:26:39.214Z,18.77
2023-10-20T03:29:06.899Z,21.23
2023-10-20T03:31:36.712Z,25.40
2023-10-20T03:34:04.104Z,21.55
2023-10-20T03:36:31.398Z,24.25
2023-10-20T03:38:58.664Z,24.85
2023-10-20T03:41:26.615Z,21.55
2023-10-20T03:43:55.197Z,19.92
2023-10-20T03:46:22.558Z,20.60
2023-10-20T03:48:49.994Z,21.98
2023-10-20T03:51:24.537Z,22.67
2023-10-20T03:53:53.794Z,22.52
2023-10-20T03:56:23.806Z,19.92
2023-10-20T03:58:52.055Z,20.20
2023-10-20T04:01:19.511Z,21.67
2023-10-20T04:03:52.325Z,21.20
2023-10-20T04:06:21.162Z,21.65
2023-10-20T04:08:48.680Z,22.92
2023-10-20T04:11:16.189Z,20.88
2023-10-20T04:13:43.558Z,23.92
2023-10-20T04:16:13.786Z,20.20
2023-10-20T04:18:45.348Z,23.38
2023-10-20T04:21:12.865Z,19.30
2023-10-20T04:23:41.171Z,18.85
2023-10-20T04:26:22.787Z,21.27
2023-10-20T04:29:09.949Z,22.55
2023-10-20T04:31:56.132Z,21.08
2023-10-20T04:34:42.176Z,20.50
2023-10-20T04:37:28.509Z,18.77
2023-10-20T04:40:15.344Z,18.65
2023-10-20T04:43:03.850Z,18.63
2023-10-20T04:45:31.084Z,19.02
2023-10-20T04:48:16.839Z,19.90
2023-10-20T04:51:14.451Z,19.15
2023-10-20T04:53:47.432Z,17.42
2023-10-20T04:56:17.864Z,19.90
2023-10-20T04:58:55.448Z,21.10
2023-10-20T05:01:29.654Z,21.33
2023-10-20T05:03:58.972Z,22.73
2023-10-20T05:06:44.753Z,18.30
2023-10-20T05:09:15.910Z,20.20
2023-10-20T05:11:43.678Z,20.70
2023-10-20T05:14:11.380Z,20.13
2023-10-20T05:16:38.685Z,19.90
2023-10-20T05:19:06.082Z,19.52
2023-10-20T05:21:39.731Z,20.25
2023-10-20T05:24:07.588Z,20.75
2023-10-20T05:26:36.331Z,20.85
2023-10-20T05:29:04.020Z,18.58
2023-10-20T05:31:33.345Z,19.65
2023-10-20T05:34:01.071Z,20.48
2023-10-20T05:36:28.346Z,20.35
2023-10-20T05:38:55.609Z,21.00
2023-10-20T05:41:23.060Z,19.10
2023-10-20T05:43:53.998Z,18.75
2023-10-20T05:46:21.953Z,16.85
2023-10-20T05:48:49.785Z,19.15
2023-10-20T05:51:17.363Z,15.80
2023-10-20T05:53:44.767Z,15.30
2023-10-20T05:56:12.495Z,14.90
2023-10-20T05:58:40.039Z,16.73
2023-10-20T06:01:08.505Z,15.57
2023-10-20T06:03:36.138Z,14.05
2023-10-20T06:06:04.908Z,13.60
2023-10-20T06:08:32.857Z,13.95
2023-10-20T06:11:07.428Z,13.88
2023-10-20T06:13:36.817Z,10.68
2023-10-20T06:16:12.982Z,11.57
2023-10-20T06:18:43.433Z,10.27
2023-10-20T06:21:15.714Z,12.07
2023-10-20T06:23:43.329Z,10.48
2023-10-20T06:26:11.115Z,11.23
2023-10-20T06:28:38.631Z,9.43
2023-10-20T06:31:24.930Z,8.90
2023-10-20T06:34:16.492Z,11.07
2023-10-20T06:36:50.018Z,9.07
2023-10-20T06:39:20.435Z,7.22
2023-10-20T06:41:48.916Z,6.90
2023-10-20T06:44:16.574Z,8.20
2023-10-20T06:46:44.044Z,8.07
2023-10-20T06:49:11.814Z,8.95
2023-10-20T06:51:39.528Z,7.55
2023-10-20T06:54:10.137Z,7.10
2023-10-20T06:56:38.231Z,8.20
2023-10-20T06:59:06.165Z,7.43
2023-10-20T07:01:34.256Z,7.90
2023-10-20T07:04:02.130Z,8.27
2023-10-20T07:06:29.335Z,8.95
2023-10-20T07:08:56.601Z,8.57
2023-10-20T07:11:25.609Z,8.65
2023-10-20T07:13:53.119Z,9.30
2023-10-20T07:16:20.493Z,7.60
2023-10-20T07:18:49.394Z,13.07
2023-10-20T07:21:16.804Z,8.77
2023-10-20T07:23:44.122Z,9.15
2023-10-20T07:26:12.320Z,14.07
2023-10-20T07:28:40.184Z,11.57
2023-10-20T07:31:15.287Z,9.60
2023-10-20T07:33:43.160Z,10.13
2023-10-20T07:36:11.750Z,10.65
2023-10-20T07:38:40.591Z,8.20
2023-10-20T07:41:08.996Z,9.38
2023-10-20T07:43:36.886Z,8.88
2023-10-20T07:46:07.416Z,9.30
2023-10-20T07:48:36.490Z,10.02
2023-10-20T07:51:04.545Z,8.50
2023-10-20T07:53:32.187Z,11.07
2023-10-20T07:55:59.542Z,10.25
2023-10-20T07:58:27.450Z,10.85
2023-10-20T08:00:55.330Z,9.63
2023-10-20T08:03:24.698Z,9.20
2023-10-20T08:05:52.525Z,8.30
2023-10-20T08:08:20.106Z,10.07
2023-10-20T08:10:47.452Z,9.10
2023-10-20T08:13:14.916Z,6.70
2023-10-20T08:15:42.421Z,8.40
2023-10-20T08:18:10.135Z,8.82
2023-10-20T08:20:38.478Z,7.38
2023-10-20T08:23:07.270Z,7.43
2023-10-20T08:25:38.854Z,6.40
2023-10-20T08:28:09.100Z,8.30
2023-10-20T08:30:39.885Z,7.15
2023-10-20T08:33:07.568Z,6.90
2023-10-20T08:35:43.124Z,8.73
2023-10-20T08:38:10.391Z,6.03
2023-10-20T08:41:01.172Z,5.80
2023-10-20T08:43:31.664Z,5.10
2023-10-20T08:45:59.307Z,5.63
2023-10-20T08:48:26.811Z,6.07
2023-10-20T08:50:56.949Z,4.63
2023-10-20T08:53:25.099Z,4.35
2023-10-20T08:55:52.584Z,4.22
2023-10-20T08:58:20.256Z,3.55
2023-10-20T09:00:58.087Z,3.20
2023-10-20T09:03:28.621Z,3.05
2023-10-20T09:06:07.035Z,3.05
2023-10-20T09:08:35.487Z,3.13
2023-10-20T09:11:03.346Z,3.17
2023-10-20T09:13:33.526Z,2.50
2023-10-20T09:16:01.224Z,4.00
2023-10-20T09:18:28.548Z,2.03
2023-10-20T09:21:05.255Z,2.15
2023-10-20T09:23:33.672Z,2.20
2023-10-20T09:26:01.316Z,3.80
2023-10-20T09:28:28.731Z,3.10
2023-10-20T09:30:57.162Z,2.50
2023-10-20T09:33:25.305Z,2.35
2023-10-20T09:35:54.502Z,1.55
2023-10-20T09:38:27.099Z,1.75
2023-10-20T09:41:25.148Z,1.70
2023-10-20T09:43:55.316Z,1.52
2023-10-20T09:47:03.906Z,1.35
2023-10-20T09:49:33.037Z,1.52
2023-10-20T09:52:00.802Z,1.80
2023-10-20T09:54:34.758Z,3.05
2023-10-20T09:57:03.120Z,1.33
2023-10-20T09:59:32.053Z,0.80
2023-10-20T10:02:00.836Z,1.48
2023-10-20T10:04:42.168Z,1.08
2023-10-20T10:07:10.402Z,1.58
2023-10-20T10:09:38.993Z,1.35
2023-10-20T10:12:18.945Z,1.38
2023-10-20T10:15:07.453Z,1.35
2023-10-20T10:17:48.358Z,2.63
2023-10-20T10:20:26.330Z,0.93
2023-10-20T10:23:29.010Z,0.65
2023-10-20T10:25:56.578Z,0.65
2023-10-20T10:28:24.590Z,1.15
2023-10-20T10:30:55.962Z,1.42
2023-10-20T10:33:25.541Z,1.30
2023-10-20T10:36:05.524Z,0.60
2023-10-20T10:38:45.928Z,0.60
2023-10-20T10:41:13.601Z,0.93
2023-10-20T10:43:43.377Z,1.20
2023-10-20T10:46:10.915Z,0.88
2023-10-20T10:48:39.756Z,0.50
2023-10-20T10:51:07.385Z,0.60
2023-10-20T10:53:35.021Z,1.15
2023-10-20T10:56:03.711Z,0.50
2023-10-20T10:58:31.990Z,0.52
2023-10-20T11:00:59.653Z,1.30
2023-10-20T11:03:27.388Z,0.95
2023-10-20T11:05:56.142Z,0.60
2023-10-20T11:08:23.957Z,5.05
2023-10-20T11:10:52.014Z,0.80
2023-10-20T11:13:21.797Z,0.38
2023-10-20T11:15:50.787Z,0.55
2023-10-20T11:18:22.155Z,0.90
2023-10-20T11:20:51.105Z,1.00
2023-10-20T11:23:35.460Z,0.43
2023-10-20T11:26:04.116Z,0.55
2023-10-20T11:28:31.711Z,0.70
2023-10-20T11:30:59.290Z,0.85
2023-10-20T11:33:26.668Z,0.40
2023-10-20T11:35:55.046Z,0.85
2023-10-20T11:38:22.990Z,0.57
2023-10-20T11:40:51.054Z,0.60
2023-10-20T11:43:18.854Z,0.45
2023-10-20T11:45:46.577Z,0.50
2023-10-20T11:48:13.976Z,2.03
2023-10-20T11:50:41.504Z,0.63
2023-10-20T11:53:09.187Z,0.85
2023-10-20T11:55:37.208Z,0.45
2023-10-20T11:58:05.366Z,0.70
2023-10-20T12:00:34.714Z,0.60
2023-10-20T12:03:02.070Z,0.82
2023-10-20T12:05:34.958Z,0.90
2023-10-20T12:08:02.684Z,0.93
2023-10-20T12:10:30.265Z,0.57
2023-10-20T12:12:57.739Z,2.72
2023-10-20T12:15:25.191Z,0.50
2023-10-20T12:17:52.492Z,0.85
2023-10-20T12:20:19.792Z,1.17
2023-10-20T12:22:47.387Z,1.92
2023-10-20T12:25:14.623Z,0.47
2023-10-20T12:27:43.831Z,0.60
2023-10-20T12:30:12.521Z,0.50
2023-10-20T12:32:40.272Z,0.50
2023-10-20T12:35:07.925Z,0.93
2023-10-20T12:37:35.371Z,1.17
2023-10-20T12:40:02.696Z,0.63
2023-10-20T12:42:30.002Z,1.70
2023-10-20T12:44:59.122Z,0.70
2023-10-20T12:47:29.331Z,0.38
2023-10-20T12:49:56.734Z,1.00
2023-10-20T12:52:24.113Z,0.50
2023-10-20T12:54:53.776Z,0.57
2023-10-20T12:57:22.509Z,0.40
2023-10-20T12:59:49.893Z,0.40
2023-10-20T13:02:17.360Z,0.88
2023-10-20T13:04:45.513Z,0.47
2023-10-20T13:07:15.008Z,0.45
2023-10-20T13:09:42.819Z,0.95
2023-10-20T13:12:10.491Z,0.50
2023-10-20T13:14:38.293Z,0.47
2023-10-20T13:17:05.616Z,0.45
2023-10-20T13:19:34.340Z,0.50
2023-10-20T13:22:01.880Z,0.50
2023-10-20T13:24:29.292Z,0.95
2023-10-20T13:26:56.957Z,0.40
2023-10-20T13:29:24.267Z,0.40
2023-10-20T13:31:52.074Z,0.57
2023-10-20T13:34:19.676Z,0.35
2023-10-20T13:36:47.314Z,1.10
2023-10-20T13:39:18.207Z,0.50
2023-10-20T13:41:58.096Z,0.40
2023-10-20T13:44:25.645Z,0.60
2023-10-20T13:46:52.912Z,0.40
2023-10-20T13:49:20.149Z,3.05
2023-10-20T13:51:47.421Z,0.30
2023-10-20T13:54:14.741Z,0.50
2023-10-20T13:56:42.453Z,0.63
2023-10-20T13:59:11.207Z,2.15
2023-10-20T14:01:40.218Z,0.30
2023-10-20T14:04:08.796Z,0.30
2023-10-20T14:06:36.401Z,0.82
2023-10-20T14:09:04.360Z,0.40
2023-10-20T14:11:31.747Z,0.43
2023-10-20T14:13:59.213Z,1.05
2023-10-20T14:16:26.844Z,0.80
2023-10-20T14:18:54.201Z,0.90
2023-10-20T14:21:21.501Z,0.47
2023-10-20T14:23:49.943Z,0.65
2023-10-20T14:26:17.291Z,0.43
2023-10-20T14:28:44.610Z,1.27
2023-10-20T14:31:13.507Z,1.38
2023-10-20T14:33:41.621Z,1.58
2023-10-20T14:36:18.304Z,0.47
2023-10-20T14:38:47.417Z,1.10
2023-10-20T14:41:14.784Z,0.40
2023-10-20T14:43:42.156Z,0.82
2023-10-20T14:46:10.330Z,1.00
2023-10-20T14:48:38.153Z,0.63
2023-10-20T14:51:11.905Z,0.80
2023-10-20T14:53:39.586Z,0.95
2023-10-20T14:56:07.859Z,6.85
2023-10-20T14:58:35.352Z,0.60
2023-10-20T15:01:03.082Z,0.60
2023-10-20T15:03:31.863Z,0.57
2023-10-20T15:06:02.803Z,0.52
2023-10-20T15:08:31.316Z,0.52
2023-10-20T15:10:59.459Z,0.40
2023-10-20T15:13:30.171Z,0.47
2023-10-20T15:16:04.079Z,0.55
2023-10-20T15:18:32.242Z,0.65
2023-10-20T15:21:00.080Z,0.40
2023-10-20T15:23:27.594Z,0.40
2023-10-20T15:25:56.175Z,0.93
2023-10-20T15:28:23.726Z,0.40
2023-10-20T15:30:51.143Z,1.38
2023-10-20T15:33:20.650Z,0.50
2023-10-20T15:35:48.683Z,0.60
2023-10-20T15:38:16.085Z,2.13
2023-10-20T15:40:52.075Z,0.50
2023-10-20T15:43:19.607Z,1.00
2023-10-20T15:45:47.122Z,1.00
2023-10-20T15:48:14.735Z,2.15
2023-10-20T15:50:46.258Z,0.68
2023-10-20T15:53:14.644Z,0.52
2023-10-20T15:55:43.306Z,0.75
2023-10-20T15:58:11.444Z,0.68
2023-10-20T16:00:47.650Z,2.47
2023-10-20T16:03:18.893Z,0.77
2023-10-20T16:05:47.900Z,0.47
2023-10-20T16:08:15.552Z,1.40
2023-10-20T16:10:42.981Z,1.80
2023-10-20T16:13:10.212Z,1.00
2023-10-20T16:15:38.936Z,1.02
2023-10-20T16:18:06.475Z,1.25
2023-10-20T16:20:34.620Z,1.02
2023-10-20T16:23:03.899Z,0.98
2023-10-20T16:25:31.320Z,0.95
2023-10-20T16:27:59.868Z,1.67
2023-10-20T16:30:27.636Z,1.00
2023-10-20T16:32:55.095Z,0.80
2023-10-20T16:35:22.630Z,0.70
2023-10-20T16:37:51.609Z,0.70
2023-10-20T16:40:19.719Z,1.17
2023-10-20T16:42:48.284Z,1.83
2023-10-20T16:45:16.298Z,1.48
2023-10-20T16:47:43.816Z,1.10
2023-10-20T16:50:11.171Z,1.67
2023-10-20T16:52:40.565Z,1.13
2023-10-20T16:55:08.526Z,2.65
2023-10-20T16:57:36.077Z,1.98
2023-10-20T17:00:03.791Z,2.17
2023-10-20T17:02:31.642Z,2.30
2023-10-20T17:04:59.298Z,2.58
2023-10-20T17:07:26.557Z,2.83
2023-10-20T17:09:54.194Z,1.38
2023-10-20T17:12:21.800Z,1.70
2023-10-20T17:14:49.160Z,1.80
2023-10-20T17:17:17.615Z,3.00
2023-10-20T17:19:44.930Z,2.75
2023-10-20T17:22:12.313Z,3.50
2023-10-20T17:24:40.074Z,2.60
2023-10-20T17:27:08.289Z,2.47
2023-10-20T17:29:36.073Z,4.50
2023-10-20T17:32:04.695Z,3.38
2023-10-20T17:34:32.350Z,3.65
2023-10-20T17:36:59.902Z,5.53
2023-10-20T17:39:27.359Z,3.67
2023-10-20T17:41:54.999Z,3.78
2023-10-20T17:44:22.605Z,4.60
2023-10-20T17:46:51.513Z,4.30
2023-10-20T17:49:18.886Z,4.68
2023-10-20T17:51:46.590Z,5.03
2023-10-20T17:54:13.989Z,5.03
2023-10-20T17:56:41.460Z,5.22
2023-10-20T17:59:08.917Z,5.90
2023-10-20T18:01:37.646Z,9.13
2023-10-20T18:04:05.850Z,6.50
2023-10-20T18:06:34.722Z,6.80
2023-10-20T18:09:02.249Z,7.20
2023-10-20T18:11:29.782Z,7.30
2023-10-20T18:13:57.545Z,8.20
2023-10-20T18:16:26.735Z,8.50
2023-10-20T18:18:55.021Z,10.18
2023-10-20T18:21:23.481Z,8.70
2023-10-20T18:23:58.829Z,9.02
2023-10-20T18:26:26.369Z,10.95
2023-10-20T18:28:54.243Z,8.65
2023-10-20T18:31:22.705Z,9.18
2023-10-20T18:33:52.509Z,9.07
2023-10-20T18:36:19.946Z,8.20
2023-10-20T18:38:47.426Z,9.70
2023-10-20T18:41:16.345Z,14.30
2023-10-20T18:43:44.311Z,9.88
2023-10-20T18:46:12.392Z,8.45
2023-10-20T18:48:40.364Z,8.30
2023-10-20T18:51:09.541Z,9.63
2023-10-20T18:53:37.027Z,9.23
2023-10-20T18:56:08.415Z,9.45
2023-10-20T18:58:36.256Z,9.30
2023-10-20T19:01:03.962Z,9.35
2023-10-20T19:03:33.330Z,9.02
2023-10-20T19:06:04.041Z,9.35
2023-10-20T19:08:31.955Z,8.88
2023-10-20T19:11:05.563Z,7.88
2023-10-20T19:13:34.912Z,8.00
2023-10-20T19:16:06.291Z,8.25
2023-10-20T19:18:33.994Z,8.63
2023-10-20T19:21:03.466Z,9.23
2023-10-20T19:23:31.421Z,6.75
2023-10-20T19:26:05.685Z,7.20
2023-10-20T19:28:32.979Z,7.07
2023-10-20T19:31:01.700Z,8.32
2023-10-20T19:33:31.927Z,7.90
2023-10-20T19:36:04.723Z,6.88
2023-10-20T19:38:32.976Z,6.25
2023-10-20T19:41:00.275Z,6.53
2023-10-20T19:43:28.025Z,7.05
2023-10-20T19:45:56.317Z,6.80
2023-10-20T19:48:24.047Z,8.20
2023-10-20T19:50:51.848Z,6.25
2023-10-20T19:53:19.384Z,5.88
2023-10-20T19:55:49.979Z,6.28
2023-10-20T19:58:17.420Z,5.60
2023-10-20T20:00:45.574Z,6.68
2023-10-20T20:03:13.559Z,7.20
2023-10-20T20:05:41.083Z,8.23
2023-10-20T20:08:09.016Z,12.48
2023-10-20T20:10:36.660Z,7.90
2023-10-20T20:13:04.692Z,7.60
2023-10-20T20:15:32.993Z,7.13
2023-10-20T20:18:00.648Z,6.35
2023-10-20T20:20:28.169Z,5.88
2023-10-20T20:22:55.730Z,7.15
2023-10-20T20:25:23.101Z,5.50
2023-10-20T20:27:50.700Z,5.18
2023-10-20T20:30:18.207Z,6.75
2023-10-20T20:32:45.936Z,5.63
2023-10-20T20:35:13.621Z,7.85
2023-10-20T20:37:41.452Z,7.63
2023-10-20T20:40:09.659Z,5.40
2023-10-20T20:42:37.282Z,8.02
2023-10-20T20:45:05.249Z,7.03
2023-10-20T20:47:33.109Z,5.20
2023-10-20T20:50:01.051Z,6.90
2023-10-20T20:52:28.457Z,5.30
2023-10-20T20:54:57.880Z,6.13
2023-10-20T20:57:26.823Z,9.90
2023-10-20T20:59:54.312Z,8.00
2023-10-20T21:02:21.810Z,5.78
2023-10-20T21:04:49.280Z,5.32
2023-10-20T21:07:16.649Z,5.70
2023-10-20T21:09:44.421Z,6.38
2023-10-20T21:12:12.030Z,8.05
2023-10-20T21:14:39.496Z,7.47
2023-10-20T21:17:07.131Z,6.00
2023-10-20T21:19:36.029Z,6.72
2023-10-20T21:22:04.085Z,8.55
2023-10-20T21:24:31.772Z,6.70
2023-10-20T21:26:59.424Z,10.70
2023-10-20T21:29:27.126Z,5.35
2023-10-20T21:31:54.913Z,5.57
2023-10-20T21:34:22.625Z,5.97
2023-10-20T21:36:49.867Z,6.95
2023-10-20T21:39:17.190Z,7.93
2023-10-20T21:41:44.561Z,7.03
2023-10-20T21:44:11.998Z,5.63
2023-10-20T21:46:39.710Z,7.00
2023-10-20T21:49:08.247Z,6.47
2023-10-20T21:51:35.840Z,7.07
2023-10-20T21:54:05.406Z,7.00
2023-10-20T21:56:35.064Z,9.45
2023-10-20T21:59:02.346Z,6.47
2023-10-20T22:01:29.869Z,6.90
2023-10-20T22:03:57.444Z,10.40
2023-10-20T22:06:24.955Z,9.02
2023-10-20T22:08:53.173Z,5.80
2023-10-20T22:11:20.476Z,7.82
2023-10-20T22:13:47.805Z,5.93
2023-10-20T22:16:15.888Z,5.88
2023-10-20T22:18:48.580Z,6.60
2023-10-20T22:21:16.326Z,6.10
2023-10-20T22:23:44.550Z,6.22
2023-10-20T22:26:11.838Z,4.95
2023-10-20T22:28:39.282Z,6.00
2023-10-20T22:31:06.957Z,5.43
2023-10-20T22:33:34.435Z,8.35
2023-10-20T22:36:02.077Z,7.30
2023-10-20T22:38:29.780Z,5.05
2023-10-20T22:40:57.387Z,9.93
2023-10-20T22:43:24.881Z,4.80
2023-10-20T22:45:52.518Z,5.43
2023-10-20T22:48:19.880Z,5.85
2023-10-20T22:50:47.533Z,8.82
2023-10-20T22:53:15.031Z,4.85
2023-10-20T22:55:42.408Z,5.35
2023-10-20T22:58:10.029Z,5.40
2023-10-20T23:00:37.363Z,7.93
2023-10-20T23:03:05.201Z,4.55
2023-10-20T23:05:32.676Z,3.30
2023-10-20T23:08:00.572Z,5.63
2023-10-20T23:10:28.032Z,5.13
2023-10-20T23:12:55.402Z,7.57
2023-10-20T23:15:23.243Z,5.40
2023-10-20T23:17:50.711Z,4.75
2023-10-20T23:20:18.381Z,3.67
2023-10-20T23:22:45.765Z,5.85
2023-10-20T23:25:13.319Z,5.65
2023-10-20T23:27:40.594Z,5.40
2023-10-20T23:30:09.012Z,5.38
2023-10-20T23:32:36.708Z,4.00
2023-10-20T23:35:04.300Z,4.38
2023-10-20T23:37:31.647Z,3.80
2023-10-20T23:39:59.338Z,5.53
2023-10-20T23:42:26.939Z,4.43
2023-10-20T23:44:54.563Z,6.07
2023-10-20T23:47:22.134Z,5.35
2023-10-20T23:49:49.755Z,7.30
2023-10-20T23:52:17.086Z,4.93
2023-10-20T23:54:45.301Z,5.63
2023-10-20T23:57:12.873Z,5.28
2023-10-20T23:59:41.447Z,8.95
